Airfield :
LOGIN :

Register | Disclaimer

   EN    FR    IT 

 










Legend :    VFR   Marginal VFR   IFR   Intensive IFR   Very Intensive IFR
Visi :
Ceiling :
>= 8 km
>= 3000ft
5 to 8 km
1000 to 3000 ft
1500m to 5 km
500 to 1000 ft
800 to 1500m
200 to 500 ft
< 800m
< 200 ft
Symbols :   Thunderstorms  Fog  Heavy snow  Heavy precipitations  Wind > 20 kt
SIGMETs :     Misc.  Thunderstorms  Icing  Turbulence  Mountain Waves  Volcanic Ashes







- Airport Elevation : 856 ft
- IATA code : VGO


LEVX - Vigo Peinador

CURRENT METAR :
  • 260030Z 30004KT 280V340 CAVOK 20/17 Q1014 NOSIG

EXPIRED METARs :
  • 260000Z VRB01KT CAVOK 19/17 Q1014 NOSIG
  • 252330Z 01007KT 330V060 9999 FEW030CB 20/17 Q1014 NOSIG
  • 252300Z VRB02KT CAVOK 21/17 Q1015 NOSIG
  • 252230Z 27011KT 240V310 CAVOK 22/17 Q1014 NOSIG
  • 252200Z 21008KT 170V240 CAVOK 23/16 Q1014 NOSIG
  • 252130Z VRB02KT CAVOK 23/19 Q1014 NOSIG

TAF TAF LEVX
Valid from the 26 at 00:00 until the 27 at 00:00 UTC


252300Z 2600/2624 VRB03KT CAVOK TX26/2614Z TN17/2606Z
PROB40
TEMPO 2612/2618 3000 SHRA TS SCT030TCU SCT040CB
TEMPO 2612/2618 27010KT
No reported NOTAMs for that airfield.



MET'MAP, your aeronautical weather chart ! - Copyright ORBIFLY December 2007 - Disclaimer

ORBIFLY MET'MAP TEAM :

Programming & Development : Alexandra Zaïnal
Concept & Development : Baudouin d'Aumeries
Co-Development & Prog : Marc-Olivier Méhu
Technical & hardware support : Manuel Goepfert

Contact : metmap@orbifly.com




SOURCES & CREDITS :

   NOAA